Time,TemperatureF,DewpointF,PressureIn,WindDirection,WindDirectionDegrees,WindSpeedMPH,WindSpeedGustMPH,Humidity,HourlyPrecipIn,Conditions,Clouds,dailyrainin,SoftwareType,DateUTC
2013-03-03 00:00:00,38.4,35.4,30.21,SW,221,0.0,0.0,89,0.00,,,0.04,Wunderground v.1.15,2013-03-03 08:00:00,
2013-03-03 00:06:00,38.3,35.3,30.22,SW,221,0.0,2.0,89,0.00,,,0.00,Wunderground v.1.15,2013-03-03 08:06:00,
2013-03-03 00:12:00,38.3,35.6,30.22,SW,220,1.0,1.0,90,0.00,,,0.00,Wunderground v.1.15,2013-03-03 08:12:00,
2013-03-03 00:18:00,38.5,35.8,30.22,SW,220,1.0,2.0,90,0.00,,,0.00,Wunderground v.1.15,2013-03-03 08:18:00,
2013-03-03 00:24:00,38.4,35.7,30.22,SW,220,0.0,1.0,90,0.00,,,0.00,Wunderground v.1.15,2013-03-03 08:24:00,
2013-03-03 00:30:00,38.2,35.5,30.22,SW,220,0.0,0.0,90,0.00,,,0.00,Wunderground v.1.15,2013-03-03 08:30:00,
2013-03-03 00:36:00,38.1,35.4,30.23,SW,220,0.0,1.0,90,0.00,,,0.00,Wunderground v.1.15,2013-03-03 08:36:00,
2013-03-03 00:42:00,38.0,35.3,30.22,SW,220,0.0,0.0,90,0.00,,,0.00,Wunderground v.1.15,2013-03-03 08:42:00,
2013-03-03 00:48:00,37.9,35.2,30.23,SW,220,0.0,0.0,90,0.00,,,0.00,Wunderground v.1.15,2013-03-03 08:48:00,
2013-03-03 00:54:00,37.9,35.2,30.23,SW,220,1.0,2.0,90,0.00,,,0.00,Wunderground v.1.15,2013-03-03 08:54:00,
2013-03-03 01:00:00,37.9,35.2,30.23,SW,220,0.0,0.0,90,0.00,,,0.00,Wunderground v.1.15,2013-03-03 09:00:00,
2013-03-03 01:06:00,37.7,35.0,30.23,SW,220,0.0,1.0,90,0.00,,,0.00,Wunderground v.1.15,2013-03-03 09:06:00,
2013-03-03 01:12:00,37.5,34.8,30.24,SW,219,0.0,0.0,90,0.00,,,0.00,Wunderground v.1.15,2013-03-03 09:12:00,
2013-03-03 01:18:00,37.4,34.7,30.24,SW,220,0.0,0.0,90,0.00,,,0.00,Wunderground v.1.15,2013-03-03 09:18:00,
2013-03-03 01:24:00,37.3,34.6,30.24,SW,219,1.0,1.0,90,0.00,,,0.00,Wunderground v.1.15,2013-03-03 09:24:00,
2013-03-03 01:30:00,37.1,34.4,30.24,SW,220,1.0,1.0,90,0.00,,,0.00,Wunderground v.1.15,2013-03-03 09:30:00,
2013-03-03 01:36:00,37.0,34.3,30.24,SW,220,1.0,2.0,90,0.00,,,0.00,Wunderground v.1.15,2013-03-03 09:36:00,
2013-03-03 01:42:00,36.8,33.9,30.24,SW,220,0.0,0.0,89,0.00,,,0.00,Wunderground v.1.15,2013-03-03 09:42:00,
2013-03-03 01:48:00,36.5,33.6,30.24,SW,220,0.0,0.0,89,0.00,,,0.00,Wunderground v.1.15,2013-03-03 09:48:00,
2013-03-03 01:54:00,36.3,33.4,30.25,SW,220,0.0,0.0,89,0.00,,,0.00,Wunderground v.1.15,2013-03-03 09:54:00,
2013-03-03 02:00:00,36.0,33.1,30.25,SW,220,0.0,1.0,89,0.00,,,0.00,Wunderground v.1.15,2013-03-03 10:00:00,
2013-03-03 02:06:00,35.7,33.1,30.25,SW,220,0.0,1.0,90,0.00,,,0.00,Wunderground v.1.15,2013-03-03 10:06:00,
2013-03-03 02:12:00,35.6,33.0,30.25,SW,220,0.0,1.0,90,0.00,,,0.00,Wunderground v.1.15,2013-03-03 10:12:00,
2013-03-03 02:18:00,35.5,32.9,30.24,SW,219,1.0,1.0,90,0.00,,,0.00,Wunderground v.1.15,2013-03-03 10:18:00,
2013-03-03 02:24:00,35.4,32.8,30.24,SW,220,1.0,1.0,90,0.00,,,0.00,Wunderground v.1.15,2013-03-03 10:24:00,
2013-03-03 02:30:00,35.2,32.6,30.24,SW,220,1.0,2.0,90,0.00,,,0.00,Wunderground v.1.15,2013-03-03 10:30:00,
2013-03-03 02:36:00,35.1,32.5,30.24,SW,219,1.0,2.0,90,0.00,,,0.00,Wunderground v.1.15,2013-03-03 10:36:00,
2013-03-03 02:42:00,34.9,32.3,30.24,SW,220,1.0,1.0,90,0.00,,,0.00,Wunderground v.1.15,2013-03-03 10:42:00,
2013-03-03 02:48:00,34.7,32.1,30.24,SW,219,0.0,1.0,90,0.00,,,0.00,Wunderground v.1.15,2013-03-03 10:48:00,
2013-03-03 02:54:00,34.4,31.8,30.24,SW,221,0.0,1.0,90,0.00,,,0.00,Wunderground v.1.15,2013-03-03 10:54:00,
2013-03-03 03:00:00,34.3,31.7,30.25,WSW,238,1.0,1.0,90,0.00,,,0.00,Wunderground v.1.15,2013-03-03 11:00:00,
2013-03-03 03:06:00,34.1,31.5,30.25,WSW,238,1.0,1.0,90,0.00,,,0.00,Wunderground v.1.15,2013-03-03 11:06:00,
2013-03-03 03:12:00,34.0,31.4,30.25,West,259,1.0,2.0,90,0.00,,,0.00,Wunderground v.1.15,2013-03-03 11:12:00,
2013-03-03 03:18:00,34.1,31.7,30.24,WNW,294,1.0,2.0,91,0.00,,,0.00,Wunderground v.1.15,2013-03-03 11:18:00,
2013-03-03 03:24:00,34.3,31.9,30.24,WNW,294,1.0,1.0,91,0.00,,,0.00,Wunderground v.1.15,2013-03-03 11:24:00,
2013-03-03 03:30:00,34.3,31.9,30.24,WNW,294,0.0,1.0,91,0.00,,,0.00,Wunderground v.1.15,2013-03-03 11:30:00,
2013-03-03 03:36:00,34.1,31.7,30.24,WNW,294,0.0,1.0,91,0.00,,,0.00,Wunderground v.1.15,2013-03-03 11:36:00,
2013-03-03 03:42:00,33.9,31.6,30.24,WNW,294,0.0,1.0,91,0.00,,,0.00,Wunderground v.1.15,2013-03-03 11:42:00,
2013-03-03 03:48:00,33.7,31.4,30.24,WNW,294,0.0,1.0,91,0.00,,,0.00,Wunderground v.1.15,2013-03-03 11:48:00,
2013-03-03 03:54:00,33.6,31.3,30.24,WNW,296,1.0,2.0,91,0.00,,,0.00,Wunderground v.1.15,2013-03-03 11:54:00,
2013-03-03 04:00:00,33.4,31.1,30.24,WNW,298,1.0,1.0,91,0.00,,,0.00,Wunderground v.1.15,2013-03-03 12:00:00,
2013-03-03 04:06:00,33.2,30.9,30.24,WNW,298,1.0,1.0,91,0.00,,,0.00,Wunderground v.1.15,2013-03-03 12:06:00,
2013-03-03 04:12:00,33.1,30.8,30.24,WNW,298,1.0,2.0,91,0.00,,,0.00,Wunderground v.1.15,2013-03-03 12:12:00,
2013-03-03 04:18:00,32.9,30.6,30.24,WNW,298,2.0,2.0,91,0.00,,,0.00,Wunderground v.1.15,2013-03-03 12:18:00,
2013-03-03 04:24:00,32.7,30.4,30.24,WNW,296,3.0,3.0,91,0.00,,,0.00,Wunderground v.1.15,2013-03-03 12:24:00,
2013-03-03 04:30:00,32.9,30.6,30.24,WNW,299,3.0,3.0,91,0.00,,,0.00,Wunderground v.1.15,2013-03-03 12:30:00,
2013-03-03 04:36:00,33.0,30.9,30.24,WNW,300,3.0,4.0,92,0.00,,,0.00,Wunderground v.1.15,2013-03-03 12:36:00,
2013-03-03 04:42:00,33.0,30.9,30.24,WNW,300,3.0,3.0,92,0.00,,,0.00,Wunderground v.1.15,2013-03-03 12:42:00,
2013-03-03 04:48:00,33.0,30.9,30.24,WNW,303,2.0,3.0,92,0.00,,,0.00,Wunderground v.1.15,2013-03-03 12:48:00,
2013-03-03 04:54:00,32.8,30.5,30.24,WNW,303,2.0,4.0,91,0.00,,,0.00,Wunderground v.1.15,2013-03-03 12:54:00,
2013-03-03 05:00:00,32.7,30.4,30.24,WNW,303,3.0,3.0,91,0.00,,,0.00,Wunderground v.1.15,2013-03-03 13:00:00,
2013-03-03 05:06:00,32.8,30.7,30.24,WNW,303,2.0,3.0,92,0.00,,,0.00,Wunderground v.1.15,2013-03-03 13:06:00,
2013-03-03 05:12:00,32.9,30.8,30.24,WNW,303,2.0,3.0,92,0.00,,,0.00,Wunderground v.1.15,2013-03-03 13:12:00,
2013-03-03 05:18:00,33.0,30.9,30.24,WNW,302,2.0,3.0,92,0.00,,,0.00,Wunderground v.1.15,2013-03-03 13:18:00,
2013-03-03 05:24:00,33.2,31.1,30.25,WNW,303,2.0,3.0,92,0.00,,,0.00,Wunderground v.1.15,2013-03-03 13:24:00,
2013-03-03 05:30:00,33.3,31.2,30.25,WNW,302,2.0,2.0,92,0.00,,,0.00,Wunderground v.1.15,2013-03-03 13:30:00,
2013-03-03 05:36:00,33.3,31.2,30.25,WNW,302,2.0,4.0,92,0.00,,,0.00,Wunderground v.1.15,2013-03-03 13:36:00,
2013-03-03 05:42:00,33.5,31.4,30.25,WNW,302,3.0,4.0,92,0.00,,,0.00,Wunderground v.1.15,2013-03-03 13:42:00,
2013-03-03 05:48:00,33.9,31.8,30.25,NW,304,3.0,4.0,92,0.00,,,0.00,Wunderground v.1.15,2013-03-03 13:48:00,
2013-03-03 05:54:00,34.0,31.9,30.25,NW,304,2.0,3.0,92,0.00,,,0.00,Wunderground v.1.15,2013-03-03 13:54:00,
2013-03-03 06:00:00,34.0,31.9,30.25,NW,304,1.0,1.0,92,0.00,,,0.00,Wunderground v.1.15,2013-03-03 14:00:00,
2013-03-03 06:06:00,33.9,31.8,30.25,NW,304,2.0,2.0,92,0.00,,,0.00,Wunderground v.1.15,2013-03-03 14:06:00,
2013-03-03 06:12:00,34.0,31.9,30.25,NW,304,1.0,1.0,92,0.00,,,0.00,Wunderground v.1.15,2013-03-03 14:12:00,
2013-03-03 06:18:00,34.0,31.9,30.25,NW,304,1.0,2.0,92,0.00,,,0.00,Wunderground v.1.15,2013-03-03 14:18:00,
2013-03-03 06:24:00,34.0,31.9,30.25,NW,304,1.0,1.0,92,0.00,,,0.00,Wunderground v.1.15,2013-03-03 14:24:00,
2013-03-03 06:30:00,34.0,31.9,30.26,NW,304,0.0,0.0,92,0.00,,,0.00,Wunderground v.1.15,2013-03-03 14:30:00,
2013-03-03 06:36:00,34.0,31.9,30.26,NW,304,0.0,1.0,92,0.00,,,0.00,Wunderground v.1.15,2013-03-03 14:36:00,
2013-03-03 06:42:00,34.1,32.0,30.26,NW,304,0.0,0.0,92,0.00,,,0.00,Wunderground v.1.15,2013-03-03 14:42:00,
2013-03-03 06:48:00,34.2,32.1,30.26,NW,304,0.0,0.0,92,0.00,,,0.00,Wunderground v.1.15,2013-03-03 14:48:00,
2013-03-03 06:54:00,34.2,32.1,30.26,NW,304,0.0,0.0,92,0.00,,,0.00,Wunderground v.1.15,2013-03-03 14:54:00,
2013-03-03 07:00:00,34.4,32.3,30.26,NW,304,0.0,0.0,92,0.00,,,0.00,Wunderground v.1.15,2013-03-03 15:00:00,
2013-03-03 07:06:00,34.4,32.3,30.26,NW,304,0.0,0.0,92,0.00,,,0.00,Wunderground v.1.15,2013-03-03 15:06:00,
2013-03-03 07:12:00,34.4,32.3,30.26,NW,304,0.0,0.0,92,0.00,,,0.00,Wunderground v.1.15,2013-03-03 15:12:00,
2013-03-03 07:18:00,34.4,32.3,30.26,NW,304,0.0,2.0,92,0.00,,,0.00,Wunderground v.1.15,2013-03-03 15:18:00,
2013-03-03 07:24:00,34.5,32.4,30.26,NW,304,1.0,1.0,92,0.00,,,0.00,Wunderground v.1.15,2013-03-03 15:24:00,
2013-03-03 07:30:00,34.6,32.5,30.26,NW,304,1.0,1.0,92,0.00,,,0.00,Wunderground v.1.15,2013-03-03 15:30:00,
2013-03-03 07:36:00,34.7,32.6,30.26,NW,304,1.0,1.0,92,0.00,,,0.00,Wunderground v.1.15,2013-03-03 15:36:00,
2013-03-03 07:42:00,34.9,33.1,30.26,NW,304,0.0,1.0,93,0.00,,,0.00,Wunderground v.1.15,2013-03-03 15:42:00,
2013-03-03 07:48:00,35.0,33.2,30.26,NW,304,0.0,1.0,93,0.00,,,0.00,Wunderground v.1.15,2013-03-03 15:48:00,
2013-03-03 07:54:00,35.2,33.4,30.27,NW,304,0.0,0.0,93,0.00,,,0.00,Wunderground v.1.15,2013-03-03 15:54:00,
2013-03-03 08:00:00,35.3,33.5,30.27,NW,304,1.0,1.0,93,0.00,,,0.00,Wunderground v.1.15,2013-03-03 16:00:00,
2013-03-03 08:06:00,35.5,33.7,30.27,NW,304,1.0,1.0,93,0.00,,,0.00,Wunderground v.1.15,2013-03-03 16:06:00,
2013-03-03 08:12:00,35.7,33.9,30.27,NW,304,0.0,2.0,93,0.00,,,0.00,Wunderground v.1.15,2013-03-03 16:12:00,
2013-03-03 08:18:00,36.0,34.2,30.27,NW,304,1.0,3.0,93,0.00,,,0.00,Wunderground v.1.15,2013-03-03 16:18:00,
2013-03-03 08:24:00,36.3,34.5,30.27,NW,304,1.0,1.0,93,0.00,,,0.00,Wunderground v.1.15,2013-03-03 16:24:00,
2013-03-03 08:30:00,36.6,34.8,30.27,NW,304,1.0,1.0,93,0.00,,,0.00,Wunderground v.1.15,2013-03-03 16:30:00,
2013-03-03 08:36:00,36.8,35.0,30.27,NW,304,1.0,2.0,93,0.00,,,0.00,Wunderground v.1.15,2013-03-03 16:36:00,
2013-03-03 08:42:00,37.0,35.2,30.27,NW,304,1.0,2.0,93,0.00,,,0.00,Wunderground v.1.15,2013-03-03 16:42:00,
2013-03-03 08:48:00,37.2,35.4,30.27,NW,304,2.0,2.0,93,0.00,,,0.00,Wunderground v.1.15,2013-03-03 16:48:00,
2013-03-03 08:54:00,37.3,35.5,30.27,NW,304,1.0,1.0,93,0.00,,,0.00,Wunderground v.1.15,2013-03-03 16:54:00,
2013-03-03 09:00:00,37.6,35.8,30.27,NW,304,1.0,1.0,93,0.00,,,0.00,Wunderground v.1.15,2013-03-03 17:00:00,
2013-03-03 09:06:00,38.4,36.6,30.27,NW,304,1.0,2.0,93,0.00,,,0.00,Wunderground v.1.15,2013-03-03 17:06:00,
2013-03-03 09:12:00,39.3,37.4,30.26,NW,304,1.0,2.0,93,0.00,,,0.00,Wunderground v.1.15,2013-03-03 17:12:00,
2013-03-03 09:18:00,40.1,38.0,30.26,WNW,297,1.0,3.0,92,0.00,,,0.00,Wunderground v.1.15,2013-03-03 17:18:00,
2013-03-03 09:24:00,41.0,38.6,30.26,WNW,296,1.0,1.0,91,0.00,,,0.00,Wunderground v.1.15,2013-03-03 17:24:00,
2013-03-03 09:30:00,41.9,38.9,30.26,SW,234,1.0,2.0,89,0.00,,,0.00,Wunderground v.1.15,2013-03-03 17:30:00,
2013-03-03 09:36:00,42.3,38.4,30.26,SW,234,2.0,3.0,86,0.00,,,0.00,Wunderground v.1.15,2013-03-03 17:36:00,
2013-03-03 09:42:00,43.8,39.9,30.26,SW,234,1.0,2.0,86,0.00,,,0.00,Wunderground v.1.15,2013-03-03 17:42:00,
2013-03-03 09:48:00,43.9,38.4,30.26,West,273,1.0,2.0,81,0.00,,,0.00,Wunderground v.1.15,2013-03-03 17:48:00,
2013-03-03 09:54:00,44.1,38.0,30.26,West,273,1.0,1.0,79,0.00,,,0.00,Wunderground v.1.15,2013-03-03 17:54:00,
2013-03-03 10:00:00,45.9,39.8,30.25,West,278,1.0,1.0,79,0.00,,,0.00,Wunderground v.1.15,2013-03-03 18:00:00,
2013-03-03 10:06:00,45.0,37.6,30.25,WSW,238,2.0,4.0,75,0.00,,,0.00,Wunderground v.1.15,2013-03-03 18:06:00,
2013-03-03 10:12:00,45.5,37.7,30.25,WSW,246,4.0,5.0,74,0.00,,,0.00,Wunderground v.1.15,2013-03-03 18:12:00,
2013-03-03 10:18:00,45.7,37.5,30.25,NW,315,5.0,6.0,73,0.00,,,0.00,Wunderground v.1.15,2013-03-03 18:18:00,
2013-03-03 10:24:00,45.9,37.4,30.25,West,277,5.0,6.0,72,0.00,,,0.00,Wunderground v.1.15,2013-03-03 18:24:00,
2013-03-03 10:30:00,45.7,37.2,30.26,WSW,238,4.0,4.0,72,0.00,,,0.00,Wunderground v.1.15,2013-03-03 18:30:00,
2013-03-03 10:36:00,45.1,37.0,30.25,WSW,258,4.0,6.0,73,0.00,,,0.00,Wunderground v.1.15,2013-03-03 18:36:00,
2013-03-03 10:42:00,45.0,36.9,30.26,SW,223,5.0,5.0,73,0.00,,,0.00,Wunderground v.1.15,2013-03-03 18:42:00,
2013-03-03 10:48:00,45.3,37.5,30.26,West,259,4.0,5.0,74,0.00,,,0.00,Wunderground v.1.15,2013-03-03 18:48:00,
2013-03-03 10:54:00,46.0,37.1,30.25,NNW,327,3.0,4.0,71,0.00,,,0.00,Wunderground v.1.15,2013-03-03 18:54:00,
2013-03-03 11:00:00,46.4,36.8,30.25,NW,319,2.0,3.0,69,0.00,,,0.00,Wunderground v.1.15,2013-03-03 19:00:00,
2013-03-03 11:06:00,46.5,36.9,30.25,NNE,30,3.0,6.0,69,0.00,,,0.00,Wunderground v.1.15,2013-03-03 19:06:00,
2013-03-03 11:12:00,47.3,36.9,30.25,SSE,163,3.0,3.0,67,0.00,,,0.00,Wunderground v.1.15,2013-03-03 19:12:00,
2013-03-03 11:18:00,47.2,36.8,30.25,SW,236,2.0,5.0,67,0.00,,,0.00,Wunderground v.1.15,2013-03-03 19:18:00,
2013-03-03 11:24:00,46.7,37.4,30.25,WNW,284,2.0,2.0,70,0.00,,,0.00,Wunderground v.1.15,2013-03-03 19:24:00,
2013-03-03 11:30:00,46.3,36.3,30.25,NW,304,2.0,2.0,68,0.00,,,0.00,Wunderground v.1.15,2013-03-03 19:30:00,
2013-03-03 11:36:00,46.3,35.9,30.25,NW,314,2.0,2.0,67,0.00,,,0.00,Wunderground v.1.15,2013-03-03 19:36:00,
2013-03-03 11:42:00,46.3,35.9,30.25,NW,319,2.0,3.0,67,0.00,,,0.00,Wunderground v.1.15,2013-03-03 19:42:00,
2013-03-03 11:48:00,46.4,35.7,30.25,NE,49,2.0,3.0,66,0.00,,,0.00,Wunderground v.1.15,2013-03-03 19:48:00,
2013-03-03 11:54:00,46.6,35.8,30.25,NNW,330,1.0,3.0,66,0.00,,,0.00,Wunderground v.1.15,2013-03-03 19:54:00,
2013-03-03 12:00:00,47.1,36.7,30.25,NNW,329,1.0,2.0,67,0.00,,,0.00,Wunderground v.1.15,2013-03-03 20:00:00,
2013-03-03 12:06:00,47.1,35.1,30.25,North,355,1.0,2.0,63,0.00,,,0.00,Wunderground v.1.15,2013-03-03 20:06:00,
2013-03-03 12:12:00,48.1,35.7,30.25,North,10,1.0,2.0,62,0.00,,,0.00,Wunderground v.1.15,2013-03-03 20:12:00,
2013-03-03 12:18:00,47.2,37.2,30.25,ENE,67,2.0,3.0,68,0.00,,,0.00,Wunderground v.1.15,2013-03-03 20:18:00,
2013-03-03 12:24:00,46.4,36.8,30.25,East,98,2.0,4.0,69,0.00,,,0.00,Wunderground v.1.15,2013-03-03 20:24:00,
2013-03-03 12:30:00,46.2,36.6,30.24,SE,132,2.0,4.0,69,0.00,,,0.00,Wunderground v.1.15,2013-03-03 20:30:00,
2013-03-03 12:36:00,46.4,36.8,30.25,East,95,2.0,4.0,69,0.00,,,0.00,Wunderground v.1.15,2013-03-03 20:36:00,
2013-03-03 12:42:00,46.3,36.7,30.25,SE,129,2.0,5.0,69,0.00,,,0.00,Wunderground v.1.15,2013-03-03 20:42:00,
2013-03-03 12:48:00,46.1,36.5,30.24,SE,131,2.0,5.0,69,0.00,,,0.00,Wunderground v.1.15,2013-03-03 20:48:00,
2013-03-03 12:54:00,46.7,36.7,30.24,South,179,2.0,2.0,68,0.00,,,0.00,Wunderground v.1.15,2013-03-03 20:54:00,
2013-03-03 13:00:00,47.2,36.4,30.24,South,181,1.0,1.0,66,0.00,,,0.00,Wunderground v.1.15,2013-03-03 21:00:00,
2013-03-03 13:06:00,47.6,36.8,30.24,SSE,161,1.0,2.0,66,0.00,,,0.00,Wunderground v.1.15,2013-03-03 21:06:00,
2013-03-03 13:12:00,49.0,37.7,30.23,South,186,1.0,3.0,65,0.00,,,0.00,Wunderground v.1.15,2013-03-03 21:12:00,
2013-03-03 13:18:00,48.6,36.6,30.23,SE,133,3.0,6.0,63,0.00,,,0.00,Wunderground v.1.15,2013-03-03 21:18:00,
2013-03-03 13:24:00,49.4,36.1,30.23,West,265,2.0,3.0,60,0.00,,,0.00,Wunderground v.1.15,2013-03-03 21:24:00,
2013-03-03 13:30:00,50.8,37.4,30.23,SW,225,1.0,2.0,60,0.00,,,0.00,Wunderground v.1.15,2013-03-03 21:30:00,
2013-03-03 13:36:00,50.3,36.1,30.22,SW,234,3.0,5.0,58,0.00,,,0.00,Wunderground v.1.15,2013-03-03 21:36:00,
2013-03-03 13:42:00,50.8,34.7,30.22,NW,317,4.0,4.0,54,0.00,,,0.00,Wunderground v.1.15,2013-03-03 21:42:00,
2013-03-03 13:48:00,49.4,36.5,30.22,ESE,110,3.0,6.0,61,0.00,,,0.00,Wunderground v.1.15,2013-03-03 21:48:00,
2013-03-03 13:54:00,48.5,36.5,30.22,ENE,78,3.0,3.0,63,0.00,,,0.00,Wunderground v.1.15,2013-03-03 21:54:00,
2013-03-03 14:00:00,47.8,37.0,30.22,ENE,60,3.0,4.0,66,0.00,,,0.00,Wunderground v.1.15,2013-03-03 22:00:00,
2013-03-03 14:06:00,47.6,37.9,30.22,North,355,3.0,5.0,69,0.00,,,0.00,Wunderground v.1.15,2013-03-03 22:06:00,
2013-03-03 14:12:00,47.4,37.4,30.22,NE,55,2.0,4.0,68,0.00,,,0.00,Wunderground v.1.15,2013-03-03 22:12:00,
2013-03-03 14:18:00,46.9,37.3,30.22,ENE,67,2.0,4.0,69,0.00,,,0.00,Wunderground v.1.15,2013-03-03 22:18:00,
2013-03-03 14:24:00,47.3,37.3,30.22,East,88,2.0,3.0,68,0.00,,,0.00,Wunderground v.1.15,2013-03-03 22:24:00,
2013-03-03 14:30:00,47.7,37.3,30.22,East,91,2.0,2.0,67,0.00,,,0.00,Wunderground v.1.15,2013-03-03 22:30:00,
2013-03-03 14:36:00,48.3,37.1,30.22,East,91,1.0,2.0,65,0.00,,,0.00,Wunderground v.1.15,2013-03-03 22:36:00,
2013-03-03 14:42:00,49.0,37.3,30.22,East,91,1.0,3.0,64,0.00,,,0.00,Wunderground v.1.15,2013-03-03 22:42:00,
2013-03-03 14:48:00,48.3,36.3,30.22,East,101,2.0,3.0,63,0.00,,,0.00,Wunderground v.1.15,2013-03-03 22:48:00,
2013-03-03 14:54:00,48.2,36.2,30.23,ESE,102,1.0,2.0,63,0.00,,,0.00,Wunderground v.1.15,2013-03-03 22:54:00,
2013-03-03 15:00:00,48.2,36.2,30.23,ESE,102,1.0,1.0,63,0.00,,,0.00,Wunderground v.1.15,2013-03-03 23:00:00,
2013-03-03 15:06:00,48.5,36.1,30.23,ESE,102,0.0,1.0,62,0.00,,,0.00,Wunderground v.1.15,2013-03-03 23:06:00,
2013-03-03 15:12:00,49.9,38.2,30.23,East,96,0.0,1.0,64,0.00,,,0.00,Wunderground v.1.15,2013-03-03 23:12:00,
2013-03-03 15:18:00,49.1,36.2,30.22,East,80,1.0,1.0,61,0.00,,,0.00,Wunderground v.1.15,2013-03-03 23:18:00,
2013-03-03 15:24:00,48.8,36.4,30.22,East,79,1.0,1.0,62,0.00,,,0.00,Wunderground v.1.15,2013-03-03 23:24:00,
2013-03-03 15:30:00,49.5,37.4,30.23,East,79,0.0,0.0,63,0.00,,,0.00,Wunderground v.1.15,2013-03-03 23:30:00,
2013-03-03 15:36:00,50.2,36.8,30.22,East,80,0.0,1.0,60,0.00,,,0.00,Wunderground v.1.15,2013-03-03 23:36:00,
2013-03-03 15:42:00,50.1,37.2,30.22,South,188,1.0,2.0,61,0.00,,,0.00,Wunderground v.1.15,2013-03-03 23:42:00,
2013-03-03 15:48:00,49.6,37.1,30.22,SW,220,2.0,4.0,62,0.00,,,0.00,Wunderground v.1.15,2013-03-03 23:48:00,
2013-03-03 15:54:00,50.0,37.1,30.22,SW,221,3.0,3.0,61,0.00,,,0.00,Wunderground v.1.15,2013-03-03 23:54:00,
2013-03-03 16:00:00,49.5,37.0,30.22,SW,221,3.0,3.0,62,0.00,,,0.00,Wunderground v.1.15,2013-03-04 00:00:00,
2013-03-03 16:06:00,49.5,36.6,30.22,SW,217,2.0,3.0,61,0.00,,,0.00,Wunderground v.1.15,2013-03-04 00:06:00,
2013-03-03 16:12:00,48.8,36.4,30.22,SSE,168,2.0,4.0,62,0.00,,,0.00,Wunderground v.1.15,2013-03-04 00:12:00,
2013-03-03 16:18:00,48.9,36.4,30.22,SSE,168,1.0,4.0,62,0.00,,,0.00,Wunderground v.1.15,2013-03-04 00:18:00,
2013-03-03 16:24:00,48.8,36.8,30.22,SSE,168,1.0,2.0,63,0.00,,,0.00,Wunderground v.1.15,2013-03-04 00:24:00,
2013-03-03 16:30:00,48.8,37.6,30.22,SSW,196,1.0,3.0,65,0.00,,,0.00,Wunderground v.1.15,2013-03-04 00:30:00,
2013-03-03 16:36:00,48.7,37.5,30.22,WSW,250,1.0,3.0,65,0.00,,,0.00,Wunderground v.1.15,2013-03-04 00:36:00,
2013-03-03 16:42:00,48.3,37.5,30.22,West,279,1.0,1.0,66,0.00,,,0.00,Wunderground v.1.15,2013-03-04 00:42:00,
2013-03-03 16:48:00,48.0,37.2,30.22,West,279,1.0,2.0,66,0.00,,,0.00,Wunderground v.1.15,2013-03-04 00:48:00,
2013-03-03 16:54:00,47.8,37.0,30.22,West,279,1.0,1.0,66,0.00,,,0.00,Wunderground v.1.15,2013-03-04 00:54:00,
2013-03-03 17:00:00,47.5,37.1,30.22,West,279,1.0,2.0,67,0.00,,,0.00,Wunderground v.1.15,2013-03-04 01:00:00,
2013-03-03 17:06:00,47.6,37.6,30.21,West,279,1.0,2.0,68,0.00,,,0.00,Wunderground v.1.15,2013-03-04 01:06:00,
2013-03-03 17:12:00,47.7,37.7,30.21,West,279,1.0,1.0,68,0.00,,,0.00,Wunderground v.1.15,2013-03-04 01:12:00,
2013-03-03 17:18:00,47.4,37.7,30.22,West,279,0.0,1.0,69,0.00,,,0.00,Wunderground v.1.15,2013-03-04 01:18:00,
2013-03-03 17:24:00,47.1,37.4,30.22,West,279,0.0,0.0,69,0.00,,,0.00,Wunderground v.1.15,2013-03-04 01:24:00,
2013-03-03 17:30:00,46.3,37.4,30.22,West,279,0.0,0.0,71,0.00,,,0.00,Wunderground v.1.15,2013-03-04 01:30:00,
2013-03-03 17:36:00,45.9,37.4,30.22,West,279,0.0,0.0,72,0.00,,,0.00,Wunderground v.1.15,2013-03-04 01:36:00,
2013-03-03 17:42:00,45.6,37.8,30.22,West,279,0.0,0.0,74,0.00,,,0.00,Wunderground v.1.15,2013-03-04 01:42:00,
2013-03-03 17:48:00,45.1,37.6,30.22,West,279,0.0,0.0,75,0.00,,,0.00,Wunderground v.1.15,2013-03-04 01:48:00,
2013-03-03 17:54:00,44.8,37.7,30.22,West,279,0.0,1.0,76,0.00,,,0.00,Wunderground v.1.15,2013-03-04 01:54:00,
2013-03-03 18:00:00,44.2,37.4,30.22,West,279,1.0,1.0,77,0.00,,,0.00,Wunderground v.1.15,2013-03-04 02:00:00,
2013-03-03 18:06:00,43.8,37.4,30.22,West,279,0.0,1.0,78,0.00,,,0.00,Wunderground v.1.15,2013-03-04 02:06:00,
2013-03-03 18:12:00,43.3,37.2,30.22,West,279,0.0,0.0,79,0.00,,,0.00,Wunderground v.1.15,2013-03-04 02:12:00,
2013-03-03 18:18:00,43.1,37.0,30.22,West,279,0.0,2.0,79,0.00,,,0.00,Wunderground v.1.15,2013-03-04 02:18:00,
2013-03-03 18:24:00,42.8,37.1,30.22,West,279,1.0,2.0,80,0.00,,,0.00,Wunderground v.1.15,2013-03-04 02:24:00,
2013-03-03 18:30:00,42.5,37.1,30.22,West,279,0.0,0.0,81,0.00,,,0.00,Wunderground v.1.15,2013-03-04 02:30:00,
2013-03-03 18:36:00,42.3,37.2,30.22,West,279,0.0,0.0,82,0.00,,,0.00,Wunderground v.1.15,2013-03-04 02:36:00,
2013-03-03 18:42:00,41.9,37.1,30.22,West,279,0.0,0.0,83,0.00,,,0.00,Wunderground v.1.15,2013-03-04 02:42:00,
2013-03-03 18:48:00,41.5,36.7,30.23,West,279,0.0,0.0,83,0.00,,,0.00,Wunderground v.1.15,2013-03-04 02:48:00,
2013-03-03 18:54:00,41.1,36.6,30.23,West,279,0.0,0.0,84,0.00,,,0.00,Wunderground v.1.15,2013-03-04 02:54:00,
2013-03-03 19:00:00,40.8,36.6,30.23,West,279,0.0,0.0,85,0.00,,,0.00,Wunderground v.1.15,2013-03-04 03:00:00,
2013-03-03 19:06:00,40.6,36.4,30.23,West,279,0.0,1.0,85,0.00,,,0.00,Wunderground v.1.15,2013-03-04 03:06:00,
2013-03-03 19:12:00,40.3,36.4,30.23,West,279,0.0,0.0,86,0.00,,,0.00,Wunderground v.1.15,2013-03-04 03:12:00,
2013-03-03 19:18:00,40.0,36.2,30.23,West,279,0.0,0.0,86,0.00,,,0.00,Wunderground v.1.15,2013-03-04 03:18:00,
2013-03-03 19:24:00,39.6,35.8,30.23,West,279,0.0,0.0,86,0.00,,,0.00,Wunderground v.1.15,2013-03-04 03:24:00,
2013-03-03 19:30:00,39.1,35.3,30.23,West,279,0.0,0.0,86,0.00,,,0.00,Wunderground v.1.15,2013-03-04 03:30:00,
2013-03-03 19:36:00,38.7,35.2,30.23,West,279,0.0,0.0,87,0.00,,,0.00,Wunderground v.1.15,2013-03-04 03:36:00,
2013-03-03 19:42:00,38.5,35.3,30.23,West,279,0.0,2.0,88,0.00,,,0.00,Wunderground v.1.15,2013-03-04 03:42:00,
2013-03-03 19:48:00,38.7,35.5,30.23,West,279,2.0,3.0,88,0.00,,,0.00,Wunderground v.1.15,2013-03-04 03:48:00,
2013-03-03 19:54:00,38.7,35.5,30.23,West,279,2.0,2.0,88,0.00,,,0.00,Wunderground v.1.15,2013-03-04 03:54:00,
2013-03-03 20:00:00,38.2,35.0,30.23,West,272,2.0,2.0,88,0.00,,,0.00,Wunderground v.1.15,2013-03-04 04:00:00,
2013-03-03 20:06:00,38.0,34.8,30.23,West,273,2.0,2.0,88,0.00,,,0.00,Wunderground v.1.15,2013-03-04 04:06:00,
2013-03-03 20:12:00,37.7,34.5,30.23,West,272,1.0,1.0,88,0.00,,,0.00,Wunderground v.1.15,2013-03-04 04:12:00,
2013-03-03 20:18:00,37.6,34.4,30.23,West,273,1.0,2.0,88,0.00,,,0.00,Wunderground v.1.15,2013-03-04 04:18:00,
2013-03-03 20:24:00,37.5,34.6,30.23,West,272,1.0,1.0,89,0.00,,,0.00,Wunderground v.1.15,2013-03-04 04:24:00,
2013-03-03 20:30:00,37.3,34.4,30.23,West,273,0.0,0.0,89,0.00,,,0.00,Wunderground v.1.15,2013-03-04 04:30:00,
2013-03-03 20:36:00,37.3,34.4,30.23,West,273,1.0,2.0,89,0.00,,,0.00,Wunderground v.1.15,2013-03-04 04:36:00,
2013-03-03 20:42:00,37.2,34.3,30.23,West,272,1.0,2.0,89,0.00,,,0.00,Wunderground v.1.15,2013-03-04 04:42:00,
2013-03-03 20:48:00,36.9,34.0,30.23,WNW,297,1.0,2.0,89,0.00,,,0.00,Wunderground v.1.15,2013-03-04 04:48:00,
2013-03-03 20:54:00,36.6,33.7,30.23,WNW,300,2.0,2.0,89,0.00,,,0.00,Wunderground v.1.15,2013-03-04 04:54:00,
2013-03-03 21:00:00,36.2,33.3,30.23,WNW,300,1.0,1.0,89,0.00,,,0.00,Wunderground v.1.15,2013-03-04 05:00:00,
2013-03-03 21:02:00,36.1,33.2,30.23,WNW,300,1.0,1.0,89,0.00,,,0.00,Wunderground v.1.15,2013-03-04 05:02:00,
2013-03-03 21:04:00,36.0,33.1,30.23,WNW,300,1.0,1.0,89,0.00,,,0.00,Wunderground v.1.15,2013-03-04 05:04:00,
2013-03-03 21:10:00,35.7,33.1,30.23,WNW,300,0.0,0.0,90,0.00,,,0.00,Wunderground v.1.15,2013-03-04 05:10:00,
2013-03-03 21:14:00,35.5,32.9,30.23,WNW,300,0.0,0.0,90,0.00,,,0.00,Wunderground v.1.15,2013-03-04 05:14:00,
2013-03-03 21:20:00,35.5,32.9,30.23,WNW,300,0.0,0.0,90,0.00,,,0.00,Wunderground v.1.15,2013-03-04 05:20:00,
2013-03-03 21:26:00,35.5,32.9,30.23,WNW,299,0.0,1.0,90,0.00,,,0.00,Wunderground v.1.15,2013-03-04 05:26:00,
2013-03-03 21:32:00,35.3,32.7,30.23,WNW,300,1.0,3.0,90,0.00,,,0.00,Wunderground v.1.15,2013-03-04 05:32:00,
2013-03-03 21:38:00,35.3,32.7,30.23,WNW,299,2.0,3.0,90,0.00,,,0.00,Wunderground v.1.15,2013-03-04 05:38:00,
2013-03-03 21:44:00,35.5,33.1,30.23,NW,304,2.0,4.0,91,0.00,,,0.00,Wunderground v.1.15,2013-03-04 05:44:00,
2013-03-03 21:50:00,35.4,32.8,30.23,WNW,300,3.0,4.0,90,0.00,,,0.00,Wunderground v.1.15,2013-03-04 05:50:00,
2013-03-03 21:56:00,35.4,33.0,30.23,NW,304,3.0,4.0,91,0.00,,,0.00,Wunderground v.1.15,2013-03-04 05:56:00,
2013-03-03 22:02:00,35.3,32.7,30.22,WNW,300,3.0,5.0,90,0.00,,,0.00,Wunderground v.1.15,2013-03-04 06:02:00,
2013-03-03 22:08:00,35.1,32.7,30.22,WNW,301,3.0,5.0,91,0.00,,,0.00,Wunderground v.1.15,2013-03-04 06:08:00,
2013-03-03 22:14:00,35.0,32.6,30.22,WNW,303,2.0,3.0,91,0.00,,,0.00,Wunderground v.1.15,2013-03-04 06:14:00,
2013-03-03 22:20:00,35.4,33.0,30.22,WNW,301,3.0,3.0,91,0.00,,,0.00,Wunderground v.1.15,2013-03-04 06:20:00,
2013-03-03 22:26:00,35.5,33.1,30.22,NW,304,2.0,5.0,91,0.00,,,0.00,Wunderground v.1.15,2013-03-04 06:26:00,
2013-03-03 22:32:00,35.5,32.9,30.21,NW,306,2.0,2.0,90,0.00,,,0.00,Wunderground v.1.15,2013-03-04 06:32:00,
2013-03-03 22:38:00,35.5,32.9,30.21,NW,306,1.0,2.0,90,0.00,,,0.00,Wunderground v.1.15,2013-03-04 06:38:00,
2013-03-03 22:44:00,35.5,32.9,30.21,NW,304,1.0,5.0,90,0.00,,,0.00,Wunderground v.1.15,2013-03-04 06:44:00,
2013-03-03 22:50:00,35.5,32.9,30.21,NW,306,3.0,3.0,90,0.00,,,0.00,Wunderground v.1.15,2013-03-04 06:50:00,
2013-03-03 22:56:00,35.4,32.8,30.21,NW,307,2.0,3.0,90,0.00,,,0.00,Wunderground v.1.15,2013-03-04 06:56:00,
2013-03-03 23:02:00,35.5,32.9,30.21,NW,307,1.0,1.0,90,0.00,,,0.00,Wunderground v.1.15,2013-03-04 07:02:00,
2013-03-03 23:08:00,35.5,32.9,30.22,NW,307,0.0,1.0,90,0.00,,,0.00,Wunderground v.1.15,2013-03-04 07:08:00,
2013-03-03 23:14:00,35.9,33.3,30.22,WNW,298,1.0,1.0,90,0.00,,,0.00,Wunderground v.1.15,2013-03-04 07:14:00,
2013-03-03 23:20:00,36.1,33.5,30.22,WNW,298,1.0,1.0,90,0.00,,,0.00,Wunderground v.1.15,2013-03-04 07:20:00,
2013-03-03 23:26:00,36.1,33.5,30.22,WNW,298,1.0,1.0,90,0.00,,,0.00,Wunderground v.1.15,2013-03-04 07:26:00,
2013-03-03 23:32:00,35.9,33.3,30.22,WNW,298,1.0,1.0,90,0.00,,,0.00,Wunderground v.1.15,2013-03-04 07:32:00,
2013-03-03 23:38:00,35.5,32.6,30.22,WNW,298,0.0,1.0,89,0.00,,,0.00,Wunderground v.1.15,2013-03-04 07:38:00,
2013-03-03 23:44:00,35.5,32.9,30.22,WNW,298,0.0,1.0,90,0.00,,,0.00,Wunderground v.1.15,2013-03-04 07:44:00,
2013-03-03 23:50:00,35.3,32.7,30.22,WNW,298,0.0,0.0,90,0.00,,,0.00,Wunderground v.1.15,2013-03-04 07:50:00,
2013-03-03 23:56:00,35.8,33.2,30.22,WNW,298,0.0,1.0,90,0.00,,,0.00,Wunderground v.1.15,2013-03-04 07:56:00,